Flugplatz Mosbach-Lohrbach

Für EDGM sind keine METAR/TAF Berichte vorhanden.
Es werden die Flugwettermeldungen vom Flugplatz Mannheim-City in 44 km Entfernung angezeigt.

Bericht für EDFM

vom 07.12. um 18:20 UTC

Wind 6 kt aus 120°

Sichtweite 10 km oder mehr

gute Sicht, keine Wolken < 5000 ft, keine CB, keine Wettererscheinungen (CAVOK)

Temperatur 4.0°C

Taupunkt 0.0°C

Luftfeuchtigkeit 75%

Luftdruck 1007 hPa

EDFM 071820Z 12006KT CAVOK 04/M00 Q1007

Prognose für EDFM

vom 07.12. um 17:00 UTC

Zwischen 18:00 UTC und 21:00 UTC

Wind 5 kt aus 150°

Sichtweite 10 km oder mehr

gering bewölkt in 3000 ft

TAF EDFM 071700Z 0718/0721 15005KT 9999 FEW030
Impressum